Time;durP1;ratioP1;P1;durP2;ratioP2;P2;SDS_P1;SDS_P2;PMS_P1;PMS_P2;Temp;Humidity;BMP_temperature;BMP_pressure;BME280_temperature;BME280_humidity;BME280_pressure;Samples;Min_cycle;Max_cycle;Signal;HPM_P1;HPM_P2
2022/04/16 00:02:15;;;;;;;11.60;5.67;;;14.60;51.30;;;14.84;42.16;94871.53;5056786;28;20492;-58
2022/04/16 00:04:45;;;;;;;10.47;5.30;;;14.60;51.50;;;14.81;42.55;94863.91;5060799;28;20557;-58
2022/04/16 00:07:14;;;;;;;8.07;5.47;;;14.50;51.80;;;14.79;42.27;94860.63;5053081;28;21181;-56
2022/04/16 00:09:41;;;;;;;10.53;4.77;;;14.50;51.40;;;14.76;42.39;94869.72;5048871;28;20485;-56
2022/04/16 00:12:10;;;;;;;9.60;5.63;;;14.50;51.50;;;14.74;42.11;94871.69;5051050;28;21007;-55
2022/04/16 00:14:38;;;;;;;13.27;7.40;;;14.50;51.50;;;14.72;42.72;94881.63;5052175;28;20465;-56
2022/04/16 00:17:06;;;;;;;10.87;6.20;;;14.50;52.30;;;14.70;42.72;94884.47;5055814;28;20463;-55
2022/04/16 00:19:33;;;;;;;9.20;6.20;;;14.40;52.30;;;14.68;43.21;94883.78;5056342;28;20467;-56
2022/04/16 00:22:01;;;;;;;8.53;5.27;;;14.40;52.40;;;14.65;43.33;94881.44;5057725;28;20490;-55
2022/04/16 00:24:30;;;;;;;7.97;5.87;;;14.40;52.90;;;14.63;43.26;94879.97;5051657;28;20474;-57
2022/04/16 00:26:57;;;;;;;12.27;5.30;;;14.40;53.20;;;14.61;43.54;94887.25;5057250;28;20463;-55
2022/04/16 00:29:24;;;;;;;9.90;6.20;;;14.30;53.00;;;14.57;44.18;94884.06;5058372;28;20446;-55
2022/04/16 00:31:52;;;;;;;15.03;5.93;;;14.30;53.80;;;14.53;43.42;94877.44;5053797;28;20836;-56
2022/04/16 00:34:19;;;;;;;10.47;5.93;;;14.30;53.40;;;14.49;43.90;94866.38;5053854;28;20473;-56
2022/04/16 00:36:47;;;;;;;11.67;6.10;;;14.20;53.40;;;14.47;43.87;94867.53;5056857;28;20482;-55
2022/04/16 00:39:15;;;;;;;10.70;5.73;;;14.20;53.30;;;14.45;43.64;94869.50;5057381;28;20466;-55
2022/04/16 00:41:43;;;;;;;6.73;4.87;;;14.20;53.00;;;14.41;43.75;94869.00;5054995;28;20490;-56
2022/04/16 00:44:11;;;;;;;10.17;5.33;;;14.20;53.20;;;14.39;44.00;94873.66;5051110;28;20987;-56
2022/04/16 00:46:38;;;;;;;12.93;6.17;;;14.10;53.50;;;14.37;43.82;94877.44;5050864;28;20475;-55
2022/04/16 00:49:05;;;;;;;14.10;6.90;;;14.10;53.60;;;14.32;44.14;94870.81;5053755;28;20463;-56
2022/04/16 00:51:32;;;;;;;17.83;7.20;;;14.10;53.80;;;14.29;44.06;94873.78;5055082;28;20890;-56
2022/04/16 00:54:00;;;;;;;19.40;8.10;;;14.00;54.10;;;14.24;44.72;94868.16;5055538;28;20534;-56
2022/04/16 00:56:27;;;;;;;9.87;7.43;;;14.00;54.80;;;14.21;45.01;94863.19;5056856;28;20553;-57
2022/04/16 00:58:56;;;;;;;14.70;8.80;;;14.00;55.00;;;14.19;44.28;94865.19;5054430;28;20466;-55
2022/04/16 01:01:23;;;;;;;13.87;8.57;;;13.90;54.70;;;14.16;44.53;94871.59;5058119;28;20495;-56
2022/04/16 01:03:50;;;;;;;23.60;9.50;;;13.90;54.60;;;14.11;44.41;94883.66;5060576;28;21134;-55
2022/04/16 01:06:18;;;;;;;22.43;8.67;;;13.90;54.40;;;14.07;44.66;94880.50;5050341;28;20491;-57
2022/04/16 01:08:45;;;;;;;19.80;9.30;;;13.80;54.80;;;14.02;44.99;94879.31;5050449;28;20455;-55
2022/04/16 01:11:13;;;;;;;17.97;7.30;;;13.80;54.80;;;13.96;44.48;94884.28;5056083;28;20562;-57
2022/04/16 01:13:40;;;;;;;14.77;7.33;;;13.70;54.70;;;13.91;44.65;94876.00;5057984;28;20462;-57
2022/04/16 01:16:09;;;;;;;8.63;5.37;;;13.70;54.70;;;13.86;44.92;94883.56;5055435;28;20486;-56
2022/04/16 01:18:36;;;;;;;8.80;5.67;;;13.60;55.50;;;13.81;44.84;94867.38;5054428;28;20468;-55
2022/04/16 01:21:07;;;;;;;11.67;6.07;;;13.60;54.80;;;13.75;44.88;94873.28;5057519;28;20612;-57
2022/04/16 01:23:36;;;;;;;11.70;5.50;;;13.50;55.10;;;13.68;44.77;94869.63;5057284;28;20458;-56
2022/04/16 01:26:03;;;;;;;11.10;4.50;;;13.40;55.00;;;13.62;44.79;94865.81;5052383;28;20528;-56
2022/04/16 01:28:30;;;;;;;13.20;5.30;;;13.40;54.50;;;13.55;44.91;94867.44;5060404;28;20535;-55
2022/04/16 01:30:57;;;;;;;8.50;5.00;;;13.30;55.10;;;13.45;45.37;94870.19;5059118;28;20486;-55
2022/04/16 01:33:25;;;;;;;7.27;4.80;;;13.20;55.50;;;13.37;44.93;94875.41;5060709;28;20569;-56
2022/04/16 01:35:56;;;;;;;8.23;5.63;;;13.10;55.10;;;13.26;44.78;94869.41;5058698;28;20479;-56
2022/04/16 01:38:25;;;;;;;7.17;4.63;;;13.00;55.00;;;13.19;44.74;94872.81;5059944;28;20465;-56
2022/04/16 01:40:55;;;;;;;8.17;5.13;;;13.00;55.30;;;13.10;45.27;94871.94;5057444;28;20471;-55
2022/04/16 01:43:22;;;;;;;6.97;5.43;;;12.90;55.40;;;13.02;44.48;94875.34;5054633;28;20475;-56
2022/04/16 01:45:49;;;;;;;18.40;5.70;;;12.80;54.80;;;12.95;44.37;94870.84;5052938;28;20556;-56
2022/04/16 01:48:17;;;;;;;6.83;5.90;;;12.80;54.70;;;12.86;44.86;94876.06;5059694;28;20455;-56
2022/04/16 01:50:44;;;;;;;6.00;5.40;;;12.60;54.70;;;12.77;44.49;94874.34;5056232;28;21044;-56
2022/04/16 01:53:11;;;;;;;15.30;6.23;;;12.60;54.50;;;12.69;45.02;94874.28;5057961;28;20982;-55
2022/04/16 01:55:39;;;;;;;6.77;4.70;;;12.50;55.10;;;12.61;44.95;94867.13;5059860;28;20554;-55
2022/04/16 01:58:08;;;;;;;11.87;5.20;;;12.40;55.00;;;12.56;45.57;94872.03;5058525;28;20459;-56
2022/04/16 02:00:35;;;;;;;6.47;5.87;;;12.30;55.90;;;12.53;45.66;94862.63;5055315;28;20487;-56
2022/04/16 02:03:02;;;;;;;14.97;5.63;;;12.30;56.40;;;12.52;46.01;94855.69;5051582;28;21041;-57
2022/04/16 02:05:30;;;;;;;9.60;5.10;;;12.30;56.50;;;12.53;45.90;94867.03;5057151;28;20487;-56
2022/04/16 02:07:57;;;;;;;12.40;4.83;;;12.30;56.50;;;12.53;46.04;94872.31;5057151;28;20459;-57
2022/04/16 02:10:24;;;;;;;8.37;5.53;;;12.30;56.80;;;12.53;46.28;94867.91;5059742;28;20479;-55
2022/04/16 02:12:52;;;;;;;11.87;6.00;;;12.30;57.10;;;12.58;45.90;94877.16;5060486;28;20483;-57
2022/04/16 02:15:20;;;;;;;8.10;5.10;;;12.30;56.80;;;12.60;46.09;94877.84;5059849;28;20483;-55
2022/04/16 02:17:48;;;;;;;8.33;5.53;;;12.40;57.10;;;12.63;46.01;94872.25;5056396;28;20487;-56
2022/04/16 02:20:15;;;;;;;9.17;5.73;;;12.40;57.20;;;12.66;46.19;94878.06;5051524;28;20479;-56
2022/04/16 02:22:43;;;;;;;6.30;5.60;;;12.40;57.40;;;12.68;46.31;94864.72;5054333;28;20483;-56
2022/04/16 02:25:11;;;;;;;6.33;5.73;;;12.40;57.20;;;12.70;45.76;94870.66;5060373;28;21004;-56
2022/04/16 02:27:38;;;;;;;7.77;5.93;;;12.50;57.10;;;12.69;45.90;94858.47;5056992;28;20559;-56
2022/04/16 02:30:07;;;;;;;10.00;5.80;;;12.50;57.30;;;12.68;46.11;94860.25;5057961;28;20490;-56
2022/04/16 02:32:38;;;;;;;8.90;5.33;;;12.50;57.50;;;12.67;45.98;94865.69;5059063;28;20799;-55
2022/04/16 02:35:07;;;;;;;13.33;5.73;;;12.40;57.00;;;12.66;45.87;94858.75;5057070;28;20624;-58
2022/04/16 02:37:34;;;;;;;14.70;5.50;;;12.50;57.30;;;12.64;46.10;94855.44;5055069;28;20455;-57
2022/04/16 02:40:02;;;;;;;11.67;6.27;;;12.40;57.20;;;12.63;46.12;94853.78;5061595;28;20578;-56
2022/04/16 02:42:29;;;;;;;9.80;5.00;;;12.40;57.40;;;12.63;46.52;94853.78;5050402;28;20491;-56
2022/04/16 02:47:42;;;;;;;10.63;5.70;;;12.40;57.90;;;12.62;46.31;94854.75;5056581;28;20446;-54
2022/04/16 02:50:12;;;;;;;13.57;6.10;;;12.40;57.90;;;12.59;46.23;94849.78;5057616;28;20479;-56
2022/04/16 02:52:39;;;;;;;14.13;5.40;;;12.40;57.90;;;12.55;46.58;94858.00;5059097;28;21286;-56
2022/04/16 02:55:07;;;;;;;13.90;4.50;;;12.30;58.00;;;12.52;46.44;94860.94;5055672;28;20478;-56
2022/04/16 02:57:34;;;;;;;7.83;5.23;;;12.30;57.90;;;12.50;46.38;94860.28;5051854;28;20487;-58
2022/04/16 03:00:02;;;;;;;14.20;5.60;;;12.30;57.90;;;12.50;46.26;94856.78;5052855;28;20555;-56
2022/04/16 03:02:29;;;;;;;9.17;4.90;;;12.30;58.10;;;12.50;46.60;94867.34;5049676;28;20610;-55
2022/04/16 03:04:58;;;;;;;22.53;5.27;;;12.30;58.40;;;12.51;47.22;94875.13;5057415;28;20494;-57
2022/04/16 03:07:25;;;;;;;13.23;5.43;;;12.30;58.90;;;12.51;47.16;94880.38;5060206;28;21002;-55
2022/04/16 03:09:52;;;;;;;11.53;5.20;;;12.30;58.80;;;12.51;47.26;94880.38;5056152;28;20544;-57
2022/04/16 03:12:19;;;;;;;11.93;5.33;;;12.30;59.40;;;12.52;47.44;94878.59;5060787;28;21002;-57
2022/04/16 03:17:35;;;;;;;11.67;6.43;;;12.30;59.30;;;12.49;47.52;94882.34;5057326;28;20499;-55
2022/04/16 03:20:05;;;;;;;8.33;5.67;;;12.30;59.60;;;12.48;47.58;94875.41;5056016;28;20509;-56
2022/04/16 03:22:33;;;;;;;10.53;5.20;;;12.30;60.20;;;12.46;48.10;94872.09;5052949;28;20499;-55
2022/04/16 03:25:02;;;;;;;8.60;4.60;;;12.30;60.80;;;12.47;47.85;94878.22;5055023;28;20513;-55
2022/04/16 03:27:29;;;;;;;16.73;7.13;;;12.30;60.40;;;12.45;47.51;94875.72;5060987;28;20488;-56
2022/04/16 03:29:57;;;;;;;13.87;6.20;;;12.30;60.40;;;12.43;47.76;94882.97;5056033;28;20479;-57
2022/04/16 03:32:24;;;;;;;11.03;6.00;;;12.30;60.40;;;12.41;47.61;94890.22;5059258;28;20459;-56
2022/04/16 03:34:51;;;;;;;19.13;6.93;;;12.20;60.60;;;12.40;47.55;94899.09;5054309;28;20483;-56
2022/04/16 03:37:20;;;;;;;19.43;6.87;;;12.20;60.40;;;12.36;47.76;94897.72;5052791;28;20539;-56
2022/04/16 03:39:47;;;;;;;11.07;6.63;;;12.20;60.60;;;12.32;47.73;94902.47;5049775;28;20483;-55
2022/04/16 03:42:16;;;;;;;14.17;6.60;;;12.10;60.40;;;12.30;47.97;94904.44;5056286;28;20491;-56
2022/04/16 03:44:43;;;;;;;18.13;6.50;;;12.10;60.60;;;12.28;48.15;94910.84;5056870;28;20844;-57
2022/04/16 03:47:10;;;;;;;9.80;5.93;;;12.10;60.90;;;12.25;48.21;94916.41;5057315;28;20490;-57
2022/04/16 03:49:38;;;;;;;11.33;6.50;;;12.10;61.50;;;12.21;48.45;94915.88;5058110;28;20516;-55
2022/04/16 03:52:06;;;;;;;21.47;6.10;;;12.00;61.60;;;12.16;47.83;94911.06;5054310;28;20463;-56
2022/04/16 04:00:06;;;;;;;9.27;6.10;;;11.90;61.30;;;12.02;48.28;94917.66;5057736;28;20562;-57
2022/04/16 04:02:35;;;;;;;8.07;6.00;;;11.80;61.70;;;12.01;48.70;94923.91;5055315;28;21045;-55
2022/04/16 04:05:03;;;;;;;10.87;6.53;;;11.80;62.40;;;11.99;48.57;94928.50;5056323;28;20487;-57
2022/04/16 04:07:31;;;;;;;25.10;7.50;;;11.80;62.10;;;11.96;48.07;94933.22;5057198;28;20485;-57
2022/04/16 04:09:59;;;;;;;22.83;8.20;;;11.80;61.30;;;11.91;48.79;94940.72;5056658;28;20483;-56
2022/04/16 04:12:27;;;;;;;20.03;7.23;;;11.70;62.30;;;11.92;48.99;94942.38;5056261;28;20459;-56
2022/04/16 04:14:54;;;;;;;12.27;5.40;;;11.70;62.90;;;11.93;48.77;94944.91;5052982;28;21027;-55
2022/04/16 04:17:22;;;;;;;13.33;6.70;;;11.70;63.10;;;11.95;48.96;94944.75;5054912;28;20456;-55
2022/04/16 04:19:49;;;;;;;13.63;6.83;;;11.70;63.10;;;12.00;48.70;94947.78;5053014;28;20905;-57
2022/04/16 04:22:17;;;;;;;14.17;6.30;;;11.80;62.70;;;12.01;48.74;94952.06;5053372;28;20491;-58
2022/04/16 04:24:45;;;;;;;17.77;6.60;;;11.80;63.20;;;12.04;48.52;94953.56;5058528;28;20483;-57
2022/04/16 04:27:14;;;;;;;31.70;8.17;;;11.80;62.90;;;12.08;48.70;94955.78;5059383;28;20487;-58
2022/04/16 04:29:42;;;;;;;11.37;5.80;;;11.90;63.00;;;12.13;48.77;94950.91;5057617;28;20486;-57
2022/04/16 04:32:09;;;;;;;16.60;7.23;;;11.90;63.10;;;12.18;48.11;94956.56;5054364;28;20910;-57
2022/04/16 04:34:37;;;;;;;26.93;7.30;;;12.00;62.40;;;12.24;48.05;94941.09;5048816;28;20455;-57
2022/04/16 04:37:05;;;;;;;13.07;5.90;;;12.00;62.00;;;12.28;47.94;94942.47;5051765;28;20462;-55
2022/04/16 04:39:32;;;;;;;13.20;6.30;;;12.10;61.60;;;12.31;47.61;94935.09;5055628;28;20907;-57
2022/04/16 04:41:59;;;;;;;14.27;4.80;;;12.10;61.00;;;12.37;47.65;94936.31;5057696;28;20498;-56
2022/04/16 04:44:28;;;;;;;16.03;5.90;;;12.10;60.60;;;12.46;47.34;94940.69;5055331;28;20548;-58
2022/04/16 04:46:55;;;;;;;13.30;5.40;;;12.20;60.40;;;12.56;47.10;94943.25;5056239;28;20530;-57
2022/04/16 04:49:23;;;;;;;19.90;6.40;;;12.30;60.10;;;12.64;46.95;94942.50;5060462;28;20889;-58
2022/04/16 04:51:50;;;;;;;12.83;4.53;;;12.40;59.70;;;12.69;46.71;94940.25;5055420;28;20525;-57
2022/04/16 04:54:17;;;;;;;18.10;4.87;;;12.50;59.00;;;12.74;46.52;94938.00;5049452;28;21018;-57
2022/04/16 04:56:45;;;;;;;16.77;5.73;;;12.50;59.00;;;12.79;46.36;94938.34;5054447;28;20491;-57
2022/04/16 04:59:12;;;;;;;16.47;5.60;;;12.50;59.40;;;12.85;46.09;94945.66;5062125;28;20559;-56
2022/04/16 05:01:40;;;;;;;10.60;5.83;;;12.60;58.60;;;12.89;45.97;94938.28;5060608;28;20487;-57
2022/04/16 05:04:08;;;;;;;10.07;5.50;;;12.70;58.20;;;13.00;45.41;94948.59;5060240;28;20455;-57
2022/04/16 05:06:35;;;;;;;11.37;5.03;;;12.80;57.60;;;13.08;45.49;94953.13;5059361;28;20494;-57
2022/04/16 05:09:02;;;;;;;9.03;5.60;;;12.80;57.30;;;13.17;45.10;94949.56;5060353;28;20967;-57
2022/04/16 05:11:29;;;;;;;21.87;5.60;;;12.90;57.10;;;13.26;44.98;94955.72;5055177;28;20475;-56
2022/04/16 05:13:58;;;;;;;13.10;5.10;;;13.00;56.80;;;13.36;45.03;94958.31;5052676;28;20486;-57
2022/04/16 05:16:25;;;;;;;11.53;5.07;;;13.10;56.70;;;13.48;44.71;94950.94;5057725;28;20526;-56
2022/04/16 05:18:54;;;;;;;6.20;4.67;;;13.20;56.50;;;13.59;44.78;94943.59;5061334;28;20814;-54
2022/04/16 05:21:21;;;;;;;8.23;4.80;;;13.30;56.10;;;13.76;43.72;94944.50;5062599;28;20969;-57
2022/04/16 05:23:49;;;;;;;9.00;4.63;;;13.50;55.70;;;13.88;43.61;94939.78;5062030;28;20490;-57
2022/04/16 05:26:16;;;;;;;7.43;4.57;;;13.60;55.20;;;14.00;43.74;94932.38;5062389;28;20467;-57
2022/04/16 05:28:44;;;;;;;12.33;5.97;;;13.70;54.80;;;14.12;43.53;94925.00;5061776;28;20477;-56
2022/04/16 05:31:11;;;;;;;7.23;5.00;;;13.80;54.60;;;14.25;43.21;94932.47;5059201;28;20589;-56
2022/04/16 05:36:25;;;;;;;15.57;5.30;;;14.00;53.70;;;14.58;42.15;94928.09;5056236;28;20618;-58
2022/04/16 05:38:52;;;;;;;12.03;4.00;;;14.30;53.30;;;14.78;42.06;94930.44;5061599;28;20446;-57
2022/04/16 05:41:20;;;;;;;10.73;4.40;;;14.40;52.70;;;14.96;41.44;94940.88;5063678;28;21052;-58
2022/04/16 05:43:48;;;;;;;20.13;5.23;;;14.60;52.30;;;15.14;41.37;94932.78;5050927;28;20495;-57
2022/04/16 05:46:15;;;;;;;7.30;4.40;;;14.70;52.20;;;15.35;41.53;94937.56;5061002;28;20675;-56
2022/04/16 05:48:42;;;;;;;9.17;4.33;;;14.90;52.70;;;15.53;41.04;94934.72;5060660;28;20641;-57
2022/04/16 05:51:09;;;;;;;11.13;4.30;;;15.10;52.20;;;15.68;40.66;94938.34;5053447;28;20464;-58
2022/04/16 05:53:38;;;;;;;9.27;5.30;;;15.30;51.40;;;15.83;41.03;94942.97;5055305;28;20467;-57
2022/04/16 05:56:05;;;;;;;8.87;4.00;;;15.40;51.90;;;16.02;40.68;94939.06;5057371;28;21070;-58
2022/04/16 05:58:33;;;;;;;17.93;4.43;;;15.60;51.10;;;16.22;40.23;94936.84;5060165;28;20504;-57
2022/04/16 06:01:00;;;;;;;6.13;4.27;;;15.80;50.60;;;16.41;39.60;94939.06;5063411;28;20481;-57
2022/04/16 06:03:27;;;;;;;9.73;3.50;;;16.00;49.60;;;16.62;39.37;94937.63;5059230;28;20506;-58
2022/04/16 06:05:56;;;;;;;10.73;4.20;;;16.20;50.20;;;16.82;39.13;94933.53;5058156;28;20480;-56
2022/04/16 06:08:23;;;;;;;7.23;4.27;;;16.40;49.20;;;17.08;38.92;94934.19;5062292;28;20455;-57
2022/04/16 06:10:52;;;;;;;18.80;4.27;;;16.60;49.00;;;17.32;38.81;94933.13;5062373;28;20470;-57
2022/04/16 06:13:19;;;;;;;6.83;3.90;;;16.80;49.10;;;17.51;38.58;94932.63;5057052;28;20482;-56
2022/04/16 06:15:46;;;;;;;5.97;4.67;;;17.10;48.60;;;17.73;37.85;94927.44;5060704;28;20478;-57
2022/04/16 06:18:14;;;;;;;11.03;4.03;;;17.20;47.30;;;17.97;37.57;94930.84;5059261;28;20459;-58
2022/04/16 06:20:41;;;;;;;10.03;4.50;;;17.50;47.70;;;18.20;37.46;94925.44;5061683;28;20570;-58
2022/04/16 06:23:08;;;;;;;12.13;4.27;;;17.70;47.30;;;18.42;36.71;94936.97;5053902;28;21038;-55
2022/04/16 06:25:36;;;;;;;6.40;4.80;;;17.90;46.50;;;18.61;36.61;94930.22;5063251;28;20479;-57
2022/04/16 06:28:05;;;;;;;12.30;5.40;;;18.10;46.20;;;18.70;35.56;94934.44;5054764;28;20920;-55
2022/04/16 06:30:32;;;;;;;9.37;4.40;;;18.20;44.90;;;18.77;35.96;94934.47;5059707;28;20848;-57
2022/04/16 06:33:00;;;;;;;13.20;5.17;;;18.30;45.00;;;18.83;35.17;94931.06;5058687;28;20466;-57
2022/04/16 06:35:27;;;;;;;8.27;4.13;;;18.40;44.70;;;18.96;35.43;94936.56;5061317;28;20726;-57
2022/04/16 06:37:54;;;;;;;7.00;4.90;;;18.50;43.90;;;19.13;34.59;94923.81;5062337;28;20451;-56
2022/04/16 06:40:22;;;;;;;16.50;4.60;;;18.60;43.80;;;19.32;34.77;94924.16;5057419;28;20479;-57
2022/04/16 06:42:52;;;;;;;12.30;4.50;;;18.80;43.50;;;19.47;33.75;94916.91;5061887;28;20495;-57
2022/04/16 06:45:20;;;;;;;10.77;5.60;;;19.00;42.80;;;19.61;34.29;94927.66;5055323;28;20465;-56
2022/04/16 06:47:48;;;;;;;14.60;5.60;;;19.10;42.90;;;19.66;34.09;94923.41;5057690;28;20459;-56
2022/04/16 06:50:15;;;;;;;10.30;5.10;;;19.20;42.90;;;19.64;33.90;94922.78;5055287;28;21059;-56
2022/04/16 06:52:42;;;;;;;11.03;5.10;;;19.30;42.30;;;19.60;34.21;94924.16;5057200;28;20463;-56
2022/04/16 06:55:10;;;;;;;8.27;4.37;;;19.20;42.90;;;19.60;34.63;94928.69;5059999;28;21003;-57
2022/04/16 06:57:37;;;;;;;5.50;4.30;;;19.20;42.90;;;19.59;34.00;94922.50;5058597;28;20952;-57
2022/04/16 07:00:06;;;;;;;9.53;6.00;;;19.20;42.90;;;19.67;34.65;94922.38;5058388;28;20479;-55
2022/04/16 07:02:36;;;;;;;12.23;5.73;;;19.20;43.20;;;19.75;34.46;94920.56;5059399;28;20885;-57
2022/04/16 07:05:05;;;;;;;8.73;5.07;;;19.30;43.00;;;19.74;33.96;94916.28;5059085;28;20487;-57
2022/04/16 07:07:32;;;;;;;12.53;6.10;;;19.30;43.00;;;19.71;33.75;94920.94;5051978;28;20860;-57
2022/04/16 07:09:59;;;;;;;18.93;6.73;;;19.30;43.00;;;19.78;34.46;94918.34;5058643;28;20475;-56
2022/04/16 07:12:27;;;;;;;9.33;5.20;;;19.30;43.00;;;19.90;34.39;94913.28;5054404;28;20936;-55
2022/04/16 07:14:54;;;;;;;14.83;4.90;;;19.40;43.10;;;19.98;34.14;94915.00;5056615;28;20475;-54
2022/04/16 07:17:22;;;;;;;12.20;6.03;;;19.50;42.90;;;20.09;33.65;94919.75;5057735;28;20451;-57
2022/04/16 07:19:50;;;;;;;18.60;5.87;;;19.60;42.80;;;20.22;33.56;94914.50;5056427;28;21002;-57
2022/04/16 07:22:19;;;;;;;9.50;4.70;;;19.70;42.50;;;20.31;34.12;94917.00;5056051;28;20510;-54
2022/04/16 07:24:48;;;;;;;7.23;5.00;;;19.90;42.70;;;20.37;33.56;94913.50;5053771;28;21046;-57
2022/04/16 07:27:16;;;;;;;14.07;5.47;;;19.90;42.30;;;20.42;33.06;94913.75;5049718;28;20455;-56
2022/04/16 07:29:43;;;;;;;15.80;5.70;;;20.00;42.20;;;20.46;33.34;94908.84;5052924;28;20469;-57
2022/04/16 07:32:11;;;;;;;10.77;5.27;;;20.00;42.10;;;20.49;33.10;94903.09;5054106;28;20816;-58
2022/04/16 07:34:38;;;;;;;8.77;6.07;;;20.00;42.20;;;20.47;33.46;94911.31;5062180;28;20473;-56
2022/04/16 07:37:07;;;;;;;13.00;5.00;;;20.00;42.20;;;20.38;33.67;94907.97;5055147;28;20798;-56
2022/04/16 07:39:34;;;;;;;16.83;5.90;;;20.00;42.20;;;20.35;33.38;94910.22;5062209;28;20515;-56
2022/04/16 07:42:01;;;;;;;4.53;4.00;;;19.90;42.10;;;20.38;33.88;94905.31;5056231;28;20458;-56
2022/04/16 07:44:29;;;;;;;11.30;5.30;;;19.90;42.60;;;20.46;33.73;94908.84;5046575;28;20499;-56
2022/04/16 07:46:56;;;;;;;11.93;5.57;;;20.00;42.50;;;20.54;33.66;94906.81;5057172;28;20573;-55
2022/04/16 07:49:23;;;;;;;6.27;4.80;;;20.10;42.70;;;20.67;33.57;94900.72;5051145;28;20484;-56
2022/04/16 07:51:50;;;;;;;7.90;5.23;;;20.20;43.10;;;20.78;33.53;94897.44;5056951;28;20459;-57
2022/04/16 07:54:19;;;;;;;13.07;6.03;;;20.30;42.70;;;20.93;33.33;94894.59;5058089;28;20853;-56
2022/04/16 07:56:46;;;;;;;17.57;5.57;;;20.40;42.70;;;21.12;33.52;94895.63;5059251;28;20451;-56
2022/04/16 07:59:14;;;;;;;18.50;5.60;;;20.60;42.60;;;21.32;33.01;94894.81;5050868;28;20451;-55
2022/04/16 08:01:41;;;;;;;7.13;5.77;;;20.80;42.30;;;21.46;33.19;94891.09;5062956;28;20471;-56
2022/04/16 08:04:08;;;;;;;8.20;6.20;;;21.00;42.20;;;21.64;32.97;94877.13;5055306;28;20491;-56
2022/04/16 08:06:35;;;;;;;15.57;5.00;;;21.20;41.90;;;21.87;32.67;94883.03;5059381;28;21084;-57
2022/04/16 08:09:03;;;;;;;8.73;5.50;;;21.40;41.30;;;22.12;32.55;94877.81;5055703;28;20862;-57
2022/04/16 08:11:33;;;;;;;16.27;4.80;;;21.70;41.20;;;22.46;32.10;94876.66;5058615;28;20490;-55
2022/04/16 08:14:00;;;;;;;12.70;4.97;;;22.00;40.50;;;22.80;31.93;94865.78;5054866;28;20468;-56
2022/04/16 08:16:27;;;;;;;11.10;4.53;;;22.40;40.50;;;23.10;31.54;94866.00;5056367;28;20494;-62
2022/04/16 08:18:55;;;;;;;11.43;4.90;;;22.70;40.10;;;23.43;30.79;94867.59;5054112;28;20509;-57
2022/04/16 08:21:22;;;;;;;6.87;4.33;;;23.00;39.90;;;23.80;30.43;94865.78;5060470;28;20471;-56
2022/04/16 08:24:03;;;;;;;7.40;4.57;;;23.40;39.30;;;24.17;29.93;94865.03;5052027;28;20501;-56
2022/04/16 08:26:32;;;;;;;7.00;4.90;;;23.80;38.90;;;24.52;30.30;94856.28;5051627;28;20459;-56
2022/04/16 08:28:59;;;;;;;7.13;5.17;;;24.20;38.50;;;24.86;28.96;94860.22;5055026;28;20446;-57
2022/04/16 08:31:27;;;;;;;6.53;5.10;;;24.60;37.90;;;25.02;29.22;94858.72;5060608;28;20544;-56
2022/04/16 08:33:54;;;;;;;11.23;5.33;;;24.80;37.10;;;25.06;28.83;94851.81;5058835;28;20830;-58
2022/04/16 08:36:21;;;;;;;7.27;5.30;;;24.90;36.80;;;25.10;27.89;94852.19;5060628;28;21356;-56
2022/04/16 08:38:48;;;;;;;10.00;4.60;;;24.80;36.10;;;25.20;28.14;94852.41;5056475;28;20451;-56
2022/04/16 08:41:16;;;;;;;8.80;5.03;;;24.80;35.70;;;25.37;27.84;94844.50;5054892;28;20518;-57
2022/04/16 08:43:44;;;;;;;14.00;4.80;;;24.90;36.10;;;25.57;28.14;94846.06;5061358;28;20495;-56
2022/04/16 08:46:12;;;;;;;9.33;3.93;;;25.10;36.30;;;25.69;28.12;94830.72;5057825;28;20462;-57
2022/04/16 08:48:39;;;;;;;14.97;4.43;;;25.20;35.90;;;25.84;28.13;94826.72;5061852;28;20994;-58
2022/04/16 08:51:06;;;;;;;27.83;4.87;;;25.40;35.90;;;25.97;27.58;94818.38;5060340;28;20730;-58
2022/04/16 08:53:34;;;;;;;13.03;4.80;;;25.50;35.90;;;26.13;27.22;94811.44;5060282;28;20979;-58
2022/04/16 08:56:01;;;;;;;9.40;4.00;;;25.60;35.70;;;26.20;26.92;94822.13;5056538;28;20745;-57
2022/04/16 08:58:30;;;;;;;7.27;4.20;;;25.70;34.90;;;26.32;27.47;94809.41;5053565;28;20451;-58
2022/04/16 09:00:59;;;;;;;4.30;3.90;;;25.70;35.20;;;26.48;27.07;94807.81;5054187;28;20554;-57
2022/04/16 09:03:33;;;;;;;7.77;4.83;;;25.90;34.80;;;26.59;26.67;94808.84;5054261;28;21095;-57
2022/04/16 09:06:00;;;;;;;5.10;3.93;;;26.00;34.40;;;26.73;26.78;94810.19;5063783;28;20562;-57
2022/04/16 09:08:31;;;;;;;11.37;4.20;;;26.10;34.20;;;26.91;26.39;94797.53;5060143;28;20458;-58
2022/04/16 09:11:10;;;;;;;10.93;4.63;;;26.30;33.70;;;27.09;26.68;94804.59;5061661;28;20839;-57
2022/04/16 09:13:41;;;;;;;20.30;4.73;;;26.50;34.20;;;27.29;26.57;94796.00;5057112;28;20466;-57
2022/04/16 09:16:10;;;;;;;4.60;4.10;;;26.70;33.80;;;27.45;26.29;94800.59;5059145;28;20467;-58
2022/04/16 09:18:51;;;;;;;12.53;4.33;;;26.90;33.60;;;27.63;25.50;94798.69;5053245;28;20466;-57
2022/04/16 09:21:18;;;;;;;5.03;4.10;;;27.00;33.30;;;27.77;26.22;94802.66;5053228;28;20533;-57
2022/04/16 09:23:48;;;;;;;7.73;4.30;;;27.10;33.30;;;27.88;26.44;94795.50;5057124;28;20493;-56
2022/04/16 09:26:29;;;;;;;17.97;4.10;;;27.30;33.70;;;27.93;24.29;94789.34;5057935;28;20470;-55
2022/04/16 09:28:57;;;;;;;14.60;2.93;;;27.30;31.80;;;27.86;24.51;94795.75;5059881;28;20453;-58
2022/04/16 09:31:29;;;;;;;6.93;3.50;;;27.30;31.70;;;27.74;25.66;94792.34;5058926;28;20574;-58
2022/04/16 09:33:56;;;;;;;4.87;4.20;;;27.30;32.70;;;27.74;25.96;94795.06;5057163;28;20504;-56
2022/04/16 09:36:28;;;;;;;10.00;4.70;;;27.20;33.20;;;27.76;25.36;94784.00;5056550;28;20462;-57
2022/04/16 09:39:03;;;;;;;5.40;3.37;;;27.20;32.50;;;27.76;25.28;94784.81;5052886;28;20936;-56
2022/04/16 09:41:34;;;;;;;8.03;4.17;;;27.20;32.60;;;27.73;24.96;94777.19;5056330;28;20663;-57
2022/04/16 09:44:02;;;;;;;12.63;4.17;;;27.20;31.70;;;27.68;25.21;94785.25;5058296;28;20494;-57
2022/04/16 09:46:32;;;;;;;8.63;4.33;;;27.10;33.00;;;27.66;25.67;94773.88;5058830;28;20475;-57
2022/04/16 09:49:03;;;;;;;14.63;4.03;;;27.10;32.10;;;27.67;25.12;94780.88;5057839;28;20459;-56
2022/04/16 09:51:35;;;;;;;7.20;3.60;;;27.10;31.60;;;27.62;25.22;94772.72;5064354;28;20552;-58
2022/04/16 09:54:04;;;;;;;5.73;3.30;;;27.00;31.60;;;27.60;24.97;94775.66;5059609;28;20512;-56
2022/04/16 09:56:36;;;;;;;3.83;3.53;;;27.00;32.50;;;27.61;25.31;94771.91;5060733;28;20902;-57
2022/04/16 09:59:04;;;;;;;6.10;4.47;;;27.00;32.50;;;27.63;25.37;94782.47;5055769;28;20457;-58
2022/04/16 10:01:33;;;;;;;17.40;6.10;;;27.00;32.40;;;27.62;25.14;94778.97;5059200;28;20467;-57
2022/04/16 10:04:01;;;;;;;14.00;5.20;;;27.00;31.60;;;27.60;25.43;94772.16;5057610;28;21032;-58
2022/04/16 10:06:29;;;;;;;8.33;3.60;;;27.00;32.20;;;27.48;25.19;94778.50;5060095;28;20486;-58
2022/04/16 10:08:57;;;;;;;17.63;4.10;;;26.90;31.60;;;27.29;24.91;94766.28;5059683;28;20805;-58
2022/04/16 10:11:42;;;;;;;5.53;4.00;;;26.80;31.40;;;27.09;25.03;94762.19;5062248;28;21001;-57
2022/04/16 10:14:27;;;;;;;5.00;3.53;;;26.50;31.30;;;26.77;25.15;94762.78;5056140;28;20443;-58
2022/04/16 10:17:08;;;;;;;13.20;5.23;;;26.30;31.60;;;26.43;25.06;94767.25;5059080;28;20545;-57
2022/04/16 10:19:40;;;;;;;3.97;3.30;;;26.00;31.90;;;26.14;25.53;94756.47;5052653;28;20443;-58
2022/04/16 10:22:07;;;;;;;4.03;3.63;;;25.70;32.30;;;25.98;25.72;94754.53;5064074;28;20444;-58
2022/04/16 10:24:34;;;;;;;4.57;3.20;;;25.50;32.80;;;25.88;25.96;94755.94;5062786;28;21014;-57
2022/04/16 10:27:05;;;;;;;13.63;4.10;;;25.30;32.70;;;25.83;25.91;94749.63;5056117;28;20443;-57
2022/04/16 10:29:37;;;;;;;4.70;3.80;;;25.30;32.90;;;25.83;25.79;94744.25;5061650;28;20537;-58
2022/04/16 10:32:15;;;;;;;5.67;3.67;;;25.30;33.20;;;25.83;25.54;94749.63;5054083;28;20455;-58
2022/04/16 10:34:43;;;;;;;27.33;4.90;;;25.30;33.00;;;25.79;26.10;94743.06;5055773;28;21185;-58